createdAt,value
2018-04-24T00:01:43.327Z,8.50
2018-04-24T00:04:10.927Z,8.50
2018-04-24T00:06:38.526Z,8.50
2018-04-24T00:09:06.080Z,8.60
2018-04-24T00:11:33.671Z,8.60
2018-04-24T00:14:01.235Z,8.60
2018-04-24T00:16:28.832Z,8.70
2018-04-24T00:18:56.385Z,8.70
2018-04-24T00:21:23.976Z,8.70
2018-04-24T00:23:51.531Z,8.70
2018-04-24T00:26:19.127Z,8.70
2018-04-24T00:28:46.687Z,8.80
2018-04-24T00:31:14.247Z,8.80
2018-04-24T00:33:41.839Z,8.80
2018-04-24T00:36:09.400Z,8.90
2018-04-24T00:38:36.992Z,8.90
2018-04-24T00:41:05.319Z,9.10
2018-04-24T00:43:32.902Z,9.10
2018-04-24T00:46:00.453Z,9.10
2018-04-24T00:48:28.314Z,9.10
2018-04-24T00:50:55.872Z,9.20
2018-04-24T00:53:35.144Z,9.20
2018-04-24T00:56:02.990Z,9.20
2018-04-24T00:58:30.577Z,9.20
2018-04-24T01:00:58.120Z,9.20
2018-04-24T01:03:25.677Z,9.20
2018-04-24T01:05:53.271Z,9.30
2018-04-24T01:08:20.823Z,9.40
2018-04-24T01:10:48.418Z,9.50
2018-04-24T01:13:15.966Z,9.60
2018-04-24T01:15:43.557Z,9.70
2018-04-24T01:18:11.113Z,9.70
2018-04-24T01:20:38.792Z,9.80
2018-04-24T01:23:06.385Z,9.70
2018-04-24T01:25:33.976Z,9.70
2018-04-24T01:28:01.573Z,9.70
2018-04-24T01:30:29.147Z,9.70
2018-04-24T01:32:56.739Z,9.70
2018-04-24T01:35:24.329Z,9.70
2018-04-24T01:37:51.885Z,9.60
2018-04-24T01:40:19.479Z,9.60
2018-04-24T01:42:47.032Z,9.70
2018-04-24T01:45:14.599Z,9.70
2018-04-24T01:47:42.183Z,9.70
2018-04-24T01:50:09.740Z,9.70
2018-04-24T01:52:37.328Z,9.80
2018-04-24T01:55:04.878Z,9.80
2018-04-24T01:57:32.476Z,9.80
2018-04-24T02:00:00.237Z,9.80
2018-04-24T02:02:27.781Z,9.80
2018-04-24T02:04:55.371Z,9.90
2018-04-24T02:07:23.031Z,9.90
2018-04-24T02:09:50.588Z,9.80
2018-04-24T02:12:18.152Z,9.90
2018-04-24T02:14:45.738Z,9.90
2018-04-24T02:17:13.341Z,10.00
2018-04-24T02:19:40.960Z,9.90
2018-04-24T02:22:08.577Z,10.00
2018-04-24T02:24:36.144Z,10.00
2018-04-24T02:27:03.747Z,10.00
2018-04-24T02:29:31.350Z,10.00
2018-04-24T02:31:58.910Z,10.00
2018-04-24T02:34:26.508Z,10.00
2018-04-24T02:36:54.089Z,10.00
2018-04-24T02:39:21.689Z,10.00
2018-04-24T02:41:49.257Z,9.90
2018-04-24T02:44:16.867Z,10.00
2018-04-24T02:46:44.432Z,10.00
2018-04-24T02:49:11.989Z,10.00
2018-04-24T02:51:39.655Z,10.00
2018-04-24T02:54:07.207Z,10.00
2018-04-24T02:56:34.822Z,10.00
2018-04-24T02:59:02.396Z,10.00
2018-04-24T03:01:29.987Z,10.00
2018-04-24T03:03:57.588Z,10.00
2018-04-24T03:06:25.955Z,10.00
2018-04-24T03:08:54.288Z,10.00
2018-04-24T03:11:21.878Z,9.90
2018-04-24T03:13:49.504Z,10.00
2018-04-24T03:16:17.064Z,10.00
2018-04-24T03:18:44.663Z,10.00
2018-04-24T03:21:12.229Z,10.00
2018-04-24T03:23:39.832Z,10.00
2018-04-24T03:26:07.424Z,9.90
2018-04-24T03:28:34.996Z,9.90
2018-04-24T03:31:02.613Z,9.90
2018-04-24T03:33:30.172Z,9.90
2018-04-24T03:35:57.733Z,9.90
2018-04-24T03:38:25.319Z,9.90
2018-04-24T03:40:52.911Z,9.90
2018-04-24T03:43:20.512Z,9.90
2018-04-24T03:45:48.064Z,9.90
2018-04-24T03:48:16.389Z,9.90
2018-04-24T03:50:44.038Z,9.90
2018-04-24T03:53:11.621Z,9.90
2018-04-24T03:55:39.211Z,9.90
2018-04-24T03:58:06.851Z,10.00
2018-04-24T04:00:34.452Z,10.00
2018-04-24T04:03:02.047Z,9.90
2018-04-24T04:05:29.604Z,9.90
2018-04-24T04:07:57.293Z,9.90
2018-04-24T04:10:24.849Z,9.90
2018-04-24T04:12:52.404Z,9.90
2018-04-24T04:15:20.015Z,9.90
2018-04-24T04:18:00.037Z,9.90
2018-04-24T04:20:39.337Z,9.90
2018-04-24T04:23:18.651Z,9.90
2018-04-24T04:25:47.140Z,9.90
2018-04-24T04:28:14.746Z,9.90
2018-04-24T04:30:42.300Z,9.90
2018-04-24T04:33:09.882Z,9.90
2018-04-24T04:35:37.435Z,9.90
2018-04-24T04:38:05.196Z,9.90
2018-04-24T04:40:32.796Z,9.90
2018-04-24T04:43:00.396Z,9.90
2018-04-24T04:45:27.948Z,9.90
2018-04-24T04:47:55.621Z,9.90
2018-04-24T04:50:23.116Z,9.90
2018-04-24T04:52:50.720Z,9.90
2018-04-24T04:55:18.271Z,9.90
2018-04-24T04:57:45.837Z,10.00
2018-04-24T05:00:13.426Z,10.00
2018-04-24T05:02:41.076Z,9.90
2018-04-24T05:05:08.802Z,10.00
2018-04-24T05:07:36.348Z,10.00
2018-04-24T05:10:03.908Z,10.00
2018-04-24T05:12:31.503Z,10.00
2018-04-24T05:14:59.061Z,10.00
2018-04-24T05:17:26.688Z,10.00
2018-04-24T05:19:54.284Z,10.00
2018-04-24T05:22:21.853Z,10.00
2018-04-24T05:24:49.497Z,10.00
2018-04-24T05:27:17.064Z,10.00
2018-04-24T05:29:44.635Z,10.00
2018-04-24T05:32:12.234Z,10.00
2018-04-24T05:34:40.120Z,10.00
2018-04-24T05:37:07.870Z,9.90
2018-04-24T05:39:35.439Z,9.90
2018-04-24T05:42:03.061Z,9.90
2018-04-24T05:44:30.615Z,9.80
2018-04-24T05:46:58.176Z,9.80
2018-04-24T05:49:25.771Z,9.70
2018-04-24T05:51:53.329Z,9.70
2018-04-24T05:54:20.929Z,9.70
2018-04-24T05:56:48.541Z,9.70
2018-04-24T05:59:16.091Z,9.70
2018-04-24T06:01:43.715Z,9.70
2018-04-24T06:04:12.060Z,9.70
2018-04-24T06:06:39.669Z,9.70
2018-04-24T06:09:07.216Z,9.80
2018-04-24T06:11:34.816Z,9.80
2018-04-24T06:14:02.389Z,9.80
2018-04-24T06:16:29.979Z,9.90
2018-04-24T06:18:57.551Z,9.90
2018-04-24T06:21:25.395Z,9.90
2018-04-24T06:23:52.952Z,9.90
2018-04-24T06:26:21.453Z,9.90
2018-04-24T06:28:49.091Z,9.90
2018-04-24T06:31:16.711Z,9.90
2018-04-24T06:33:44.289Z,9.90
2018-04-24T06:36:11.936Z,9.90
2018-04-24T06:38:39.547Z,10.00
2018-04-24T06:41:07.172Z,10.00
2018-04-24T06:43:34.786Z,10.00
2018-04-24T06:46:03.126Z,10.00
2018-04-24T06:48:30.753Z,10.00
2018-04-24T06:50:58.318Z,10.00
2018-04-24T06:53:25.947Z,10.10
2018-04-24T06:55:53.512Z,10.10
2018-04-24T06:58:21.078Z,10.10
2018-04-24T07:00:49.579Z,10.10
2018-04-24T07:03:17.133Z,10.10
2018-04-24T07:05:45.029Z,10.20
2018-04-24T07:08:12.588Z,10.30
2018-04-24T07:10:40.492Z,10.30
2018-04-24T07:13:08.061Z,10.30
2018-04-24T07:15:35.659Z,10.30
2018-04-24T07:18:03.220Z,10.30
2018-04-24T07:20:30.825Z,10.40
2018-04-24T07:22:58.387Z,10.40
2018-04-24T07:25:25.993Z,10.40
2018-04-24T07:27:53.618Z,10.40
2018-04-24T07:30:21.229Z,10.50
2018-04-24T07:32:48.838Z,10.50
2018-04-24T07:35:16.427Z,10.50
2018-04-24T07:37:44.069Z,10.50
2018-04-24T07:40:11.689Z,10.50
2018-04-24T07:42:39.305Z,10.50
2018-04-24T07:45:07.734Z,10.50
2018-04-24T07:47:35.357Z,10.50
2018-04-24T07:50:02.958Z,10.60
2018-04-24T07:52:30.616Z,10.60
2018-04-24T07:54:58.211Z,10.70
2018-04-24T07:57:25.790Z,10.70
2018-04-24T07:59:53.423Z,10.70
2018-04-24T08:02:20.999Z,10.70
2018-04-24T08:04:48.616Z,10.70
2018-04-24T08:07:16.212Z,10.70
2018-04-24T08:09:43.828Z,10.70
2018-04-24T08:12:11.430Z,10.80
2018-04-24T08:14:39.073Z,10.80
2018-04-24T08:17:06.635Z,10.90
2018-04-24T08:19:34.203Z,10.90
2018-04-24T08:22:01.796Z,10.90
2018-04-24T08:24:29.359Z,11.00
2018-04-24T08:26:56.965Z,11.00
2018-04-24T08:29:24.539Z,11.00
2018-04-24T08:31:52.136Z,11.00
2018-04-24T08:34:19.707Z,11.10
2018-04-24T08:36:47.358Z,11.20
2018-04-24T08:39:14.971Z,11.20
2018-04-24T08:41:42.540Z,11.20
2018-04-24T08:44:10.142Z,11.20
2018-04-24T08:46:37.703Z,11.20
2018-04-24T08:49:05.334Z,11.20
2018-04-24T08:51:32.945Z,11.20
2018-04-24T08:54:00.550Z,11.30
2018-04-24T08:56:28.316Z,11.30
2018-04-24T08:58:56.605Z,11.30
2018-04-24T09:01:24.188Z,11.40
2018-04-24T09:03:51.808Z,11.30
2018-04-24T09:06:19.400Z,11.40
2018-04-24T09:08:47.021Z,11.40
2018-04-24T09:11:14.584Z,11.40
2018-04-24T09:13:42.191Z,11.40
2018-04-24T09:16:09.775Z,11.40
2018-04-24T09:18:38.298Z,11.50
2018-04-24T09:21:05.893Z,11.50
2018-04-24T09:23:33.488Z,11.50
2018-04-24T09:26:01.114Z,11.60
2018-04-24T09:28:28.886Z,11.60
2018-04-24T09:30:56.443Z,11.60
2018-04-24T09:33:24.098Z,11.60
2018-04-24T09:35:51.637Z,11.60
2018-04-24T09:38:19.219Z,11.70
2018-04-24T09:40:46.820Z,11.70
2018-04-24T09:43:15.148Z,11.90
2018-04-24T09:45:42.749Z,11.90
2018-04-24T09:48:10.392Z,11.90
2018-04-24T09:50:37.968Z,12.00
2018-04-24T09:53:05.579Z,12.00
2018-04-24T09:55:33.183Z,12.10
2018-04-24T09:58:00.740Z,12.20
2018-04-24T10:00:34.024Z,12.20
2018-04-24T10:03:01.787Z,12.30
2018-04-24T10:05:29.347Z,12.30
2018-04-24T10:07:56.948Z,12.30
2018-04-24T10:10:24.533Z,12.40
2018-04-24T10:12:52.164Z,12.50
2018-04-24T10:15:19.769Z,12.70
2018-04-24T10:17:47.371Z,12.80
2018-04-24T10:20:14.932Z,13.00
2018-04-24T10:22:42.628Z,13.10
2018-04-24T10:25:10.198Z,13.20
2018-04-24T10:27:37.822Z,13.30
2018-04-24T10:30:05.445Z,13.50
2018-04-24T10:32:33.066Z,13.80
2018-04-24T10:35:00.692Z,14.10
2018-04-24T10:37:28.359Z,14.20
2018-04-24T10:39:56.027Z,14.30
2018-04-24T10:42:23.639Z,14.40
2018-04-24T10:44:51.230Z,14.30
2018-04-24T10:47:19.465Z,14.00
2018-04-24T10:49:47.143Z,13.90
2018-04-24T10:52:14.734Z,13.90
2018-04-24T10:54:42.339Z,13.90
2018-04-24T10:57:10.013Z,13.90
2018-04-24T10:59:37.611Z,13.80
2018-04-24T11:02:05.241Z,13.70
2018-04-24T11:04:34.293Z,13.60
2018-04-24T11:07:02.945Z,13.50
2018-04-24T11:09:33.133Z,13.50
2018-04-24T11:12:01.401Z,13.50
2018-04-24T11:14:31.456Z,13.40
2018-04-24T11:17:05.408Z,13.20
2018-04-24T11:19:34.094Z,13.20
2018-04-24T11:22:03.994Z,13.20
2018-04-24T11:24:33.726Z,13.20
2018-04-24T11:27:01.924Z,13.10
2018-04-24T11:29:31.414Z,13.10
2018-04-24T11:31:59.328Z,13.10
2018-04-24T11:34:28.453Z,13.10
2018-04-24T11:36:57.258Z,13.10
2018-04-24T11:39:26.180Z,13.10
2018-04-24T11:41:53.831Z,13.00
2018-04-24T11:44:21.396Z,12.90
2018-04-24T11:46:48.954Z,12.80
2018-04-24T11:49:17.625Z,12.90
2018-04-24T11:51:46.007Z,13.00
2018-04-24T11:54:14.437Z,13.00
2018-04-24T11:56:42.034Z,12.90
2018-04-24T11:59:09.638Z,13.00
2018-04-24T12:01:37.249Z,12.90
2018-04-24T12:04:04.853Z,12.90
2018-04-24T12:06:32.410Z,12.90
2018-04-24T12:09:00.004Z,13.00
2018-04-24T12:11:27.568Z,13.10
2018-04-24T12:13:55.167Z,13.20
2018-04-24T12:16:22.729Z,13.40
2018-04-24T12:18:50.375Z,13.50
2018-04-24T12:21:18.007Z,13.50
2018-04-24T12:23:45.796Z,13.40
2018-04-24T12:26:14.518Z,13.30
2018-04-24T12:28:43.999Z,13.20
2018-04-24T12:31:11.624Z,13.20
2018-04-24T12:33:40.863Z,13.20
2018-04-24T12:36:08.556Z,13.40
2018-04-24T12:38:37.282Z,13.70
2018-04-24T12:41:05.645Z,13.90
2018-04-24T12:43:34.354Z,14.10
2018-04-24T12:46:02.117Z,14.30
2018-04-24T12:48:29.844Z,14.40
2018-04-24T12:50:59.491Z,14.60
2018-04-24T12:53:30.881Z,14.60
2018-04-24T12:56:00.041Z,14.80
2018-04-24T12:58:27.797Z,14.80
2018-04-24T13:00:56.608Z,14.70
2018-04-24T13:03:24.269Z,14.70
2018-04-24T13:05:51.846Z,14.80
2018-04-24T13:08:19.477Z,14.90
2018-04-24T13:10:47.141Z,14.90
2018-04-24T13:13:15.444Z,15.20
2018-04-24T13:15:48.839Z,15.60
2018-04-24T13:18:16.466Z,15.90
2018-04-24T13:20:44.163Z,16.20
2018-04-24T13:23:11.750Z,16.30
2018-04-24T13:25:41.459Z,15.90
2018-04-24T13:28:09.135Z,15.90
2018-04-24T13:30:37.456Z,15.80
2018-04-24T13:33:05.084Z,15.70
2018-04-24T13:35:32.637Z,15.60
2018-04-24T13:38:00.246Z,15.50
2018-04-24T13:40:28.001Z,15.30
2018-04-24T13:42:55.567Z,15.20
2018-04-24T13:45:23.184Z,15.00
2018-04-24T13:47:50.754Z,15.20
2018-04-24T13:50:18.466Z,15.40
2018-04-24T13:52:46.067Z,15.40
2018-04-24T13:55:13.910Z,15.40
2018-04-24T13:57:41.505Z,15.50
2018-04-24T14:00:10.876Z,15.60
2018-04-24T14:02:38.442Z,15.40
2018-04-24T14:05:06.065Z,15.30
2018-04-24T14:07:33.691Z,15.10
2018-04-24T14:10:01.256Z,15.00
2018-04-24T14:12:28.947Z,14.90
2018-04-24T14:14:56.509Z,15.00
2018-04-24T14:17:24.105Z,15.20
2018-04-24T14:19:51.668Z,15.80
2018-04-24T14:22:19.273Z,16.20
2018-04-24T14:24:46.904Z,16.30
2018-04-24T14:27:14.424Z,16.10
2018-04-24T14:29:42.026Z,15.80
2018-04-24T14:32:10.353Z,15.60
2018-04-24T14:34:37.947Z,15.50
2018-04-24T14:37:05.612Z,15.40
2018-04-24T14:39:33.208Z,15.20
2018-04-24T14:42:00.769Z,15.00
2018-04-24T14:44:28.395Z,14.80
2018-04-24T14:46:55.961Z,14.80
2018-04-24T14:49:23.564Z,14.80
2018-04-24T14:51:51.314Z,14.80
2018-04-24T14:54:18.893Z,14.80
2018-04-24T14:56:46.497Z,14.90
2018-04-24T14:59:14.068Z,15.00
2018-04-24T15:01:41.682Z,15.00
2018-04-24T15:04:09.333Z,14.90
2018-04-24T15:06:42.678Z,15.00
2018-04-24T15:09:10.262Z,15.00
2018-04-24T15:11:38.664Z,15.40
2018-04-24T15:14:06.289Z,15.40
2018-04-24T15:16:33.860Z,15.50
2018-04-24T15:19:02.232Z,15.20
2018-04-24T15:21:29.800Z,15.20
2018-04-24T15:23:58.164Z,15.00
2018-04-24T15:26:25.729Z,14.90
2018-04-24T15:28:53.362Z,14.80
2018-04-24T15:31:20.937Z,14.80
2018-04-24T15:33:48.528Z,14.80
2018-04-24T15:36:16.974Z,14.60
2018-04-24T15:38:44.536Z,14.60
2018-04-24T15:41:12.142Z,14.70
2018-04-24T15:43:39.717Z,14.90
2018-04-24T15:46:07.314Z,15.30
2018-04-24T15:48:34.877Z,15.30
2018-04-24T15:51:02.513Z,15.20
2018-04-24T15:53:30.111Z,14.90
2018-04-24T15:55:57.669Z,14.70
2018-04-24T15:58:25.324Z,14.50
2018-04-24T16:00:53.065Z,14.40
2018-04-24T16:03:20.666Z,14.50
2018-04-24T16:05:48.267Z,14.50
2018-04-24T16:08:15.890Z,14.50
2018-04-24T16:10:43.496Z,14.40
2018-04-24T16:13:11.095Z,14.40
2018-04-24T16:15:38.654Z,14.30
2018-04-24T16:18:06.277Z,14.10
2018-04-24T16:20:33.838Z,14.00
2018-04-24T16:23:01.419Z,14.00
2018-04-24T16:25:29.029Z,14.20
2018-04-24T16:27:56.604Z,14.30
2018-04-24T16:30:24.972Z,14.30
2018-04-24T16:32:53.296Z,14.20
2018-04-24T16:35:20.896Z,14.20
2018-04-24T16:37:48.457Z,13.90
2018-04-24T16:40:16.075Z,13.80
2018-04-24T16:42:43.644Z,13.70
2018-04-24T16:45:11.277Z,13.50
2018-04-24T16:47:38.840Z,13.30
2018-04-24T16:50:06.406Z,13.20
2018-04-24T16:52:34.036Z,13.10
2018-04-24T16:55:01.609Z,13.00
2018-04-24T16:57:29.244Z,13.00
2018-04-24T16:59:56.840Z,12.90
2018-04-24T17:02:24.444Z,12.80
2018-04-24T17:04:52.073Z,12.80
2018-04-24T17:07:19.680Z,12.70
2018-04-24T17:09:47.241Z,12.70
2018-04-24T17:12:14.849Z,12.60
2018-04-24T17:14:42.417Z,12.40
2018-04-24T17:17:10.021Z,12.30
2018-04-24T17:19:37.592Z,12.10
2018-04-24T17:22:05.161Z,11.90
2018-04-24T17:24:32.765Z,11.70
2018-04-24T17:27:00.329Z,11.60
2018-04-24T17:29:27.947Z,11.50
2018-04-24T17:31:56.287Z,11.30
2018-04-24T17:34:23.854Z,11.20
2018-04-24T17:36:51.466Z,11.10
2018-04-24T17:39:19.024Z,11.00
2018-04-24T17:41:47.395Z,10.80
2018-04-24T17:44:15.728Z,10.70
2018-04-24T17:46:43.344Z,10.70
2018-04-24T17:49:10.908Z,10.60
2018-04-24T17:51:38.475Z,10.60
2018-04-24T17:54:07.480Z,10.50
2018-04-24T17:56:35.051Z,10.50
2018-04-24T17:59:02.618Z,10.40
2018-04-24T18:01:31.803Z,10.40
2018-04-24T18:03:59.412Z,10.40
2018-04-24T18:06:27.025Z,10.30
2018-04-24T18:08:54.653Z,10.30
2018-04-24T18:11:23.061Z,10.30
2018-04-24T18:13:51.382Z,10.20
2018-04-24T18:16:18.994Z,10.20
2018-04-24T18:18:46.552Z,10.10
2018-04-24T18:21:14.161Z,10.10
2018-04-24T18:23:41.730Z,10.10
2018-04-24T18:26:09.350Z,10.10
2018-04-24T18:28:36.929Z,10.00
2018-04-24T18:31:04.599Z,10.00
2018-04-24T18:33:32.205Z,10.00
2018-04-24T18:35:59.774Z,10.00
2018-04-24T18:38:28.147Z,10.10
2018-04-24T18:40:56.472Z,10.00
2018-04-24T18:43:24.420Z,10.00
2018-04-24T18:45:52.925Z,10.10
2018-04-24T18:48:20.493Z,10.00
2018-04-24T18:50:48.093Z,10.00
2018-04-24T18:53:15.719Z,9.90
2018-04-24T18:55:43.285Z,9.90
2018-04-24T18:58:10.844Z,9.90
2018-04-24T19:00:38.462Z,9.90
2018-04-24T19:03:06.042Z,9.90
2018-04-24T19:05:33.640Z,9.90
2018-04-24T19:08:01.214Z,9.90
2018-04-24T19:10:28.817Z,10.00
2018-04-24T19:12:56.382Z,9.90
2018-04-24T19:15:23.987Z,9.90
2018-04-24T19:17:51.594Z,9.90
2018-04-24T19:20:19.200Z,10.00
2018-04-24T19:22:46.769Z,9.90
2018-04-24T19:25:20.703Z,9.80
2018-04-24T19:27:48.262Z,9.80
2018-04-24T19:30:15.880Z,9.80
2018-04-24T19:32:43.442Z,9.80
2018-04-24T19:35:11.004Z,9.80
2018-04-24T19:37:38.609Z,9.80
2018-04-24T19:40:11.828Z,9.80
2018-04-24T19:42:39.420Z,9.70
2018-04-24T19:45:06.981Z,9.70
2018-04-24T19:47:34.632Z,9.70
2018-04-24T19:50:07.925Z,9.70
2018-04-24T19:52:35.528Z,9.70
2018-04-24T19:55:09.605Z,9.70
2018-04-24T19:57:37.254Z,9.70
2018-04-24T20:00:04.931Z,9.70
2018-04-24T20:02:32.492Z,9.70
2018-04-24T20:05:00.095Z,9.80
2018-04-24T20:07:27.656Z,9.80
2018-04-24T20:09:56.020Z,9.70
2018-04-24T20:12:23.615Z,9.70
2018-04-24T20:14:51.218Z,9.70
2018-04-24T20:17:18.795Z,9.70
2018-04-24T20:19:46.373Z,9.70
2018-04-24T20:22:13.982Z,9.70
2018-04-24T20:24:43.409Z,9.70
2018-04-24T20:27:11.008Z,9.70
2018-04-24T20:29:39.378Z,9.70
2018-04-24T20:32:07.769Z,9.70
2018-04-24T20:34:36.097Z,9.70
2018-04-24T20:37:03.661Z,9.70
2018-04-24T20:39:31.263Z,9.70
2018-04-24T20:41:58.833Z,9.70
2018-04-24T20:44:27.195Z,9.70
2018-04-24T20:46:55.521Z,9.70
2018-04-24T20:49:23.114Z,9.70
2018-04-24T20:51:51.445Z,9.70
2018-04-24T20:54:19.051Z,9.70
2018-04-24T20:56:46.617Z,9.70
2018-04-24T20:59:14.524Z,9.70
2018-04-24T21:01:42.084Z,9.70
2018-04-24T21:04:09.703Z,9.80
2018-04-24T21:06:37.269Z,9.80
2018-04-24T21:09:06.176Z,9.70
2018-04-24T21:11:34.412Z,9.70
2018-04-24T21:14:02.630Z,9.70
2018-04-24T21:16:30.960Z,9.70
2018-04-24T21:18:58.552Z,9.70
2018-04-24T21:21:26.160Z,9.70
2018-04-24T21:23:54.049Z,9.70
2018-04-24T21:26:21.617Z,9.70
2018-04-24T21:28:49.284Z,9.70
2018-04-24T21:31:16.854Z,9.70
2018-04-24T21:33:44.520Z,9.70
2018-04-24T21:36:12.085Z,9.70
2018-04-24T21:38:39.670Z,9.70
2018-04-24T21:41:08.049Z,9.70
2018-04-24T21:43:36.787Z,9.80
2018-04-24T21:46:04.409Z,9.80
2018-04-24T21:48:31.978Z,9.80
2018-04-24T21:51:00.589Z,9.80
2018-04-24T21:53:28.157Z,9.80
2018-04-24T21:55:56.205Z,9.80
2018-04-24T21:58:24.916Z,9.80
2018-04-24T22:00:52.677Z,9.80
2018-04-24T22:03:22.644Z,9.80
2018-04-24T22:05:51.253Z,9.70
2018-04-24T22:08:19.046Z,9.80
2018-04-24T22:10:47.009Z,9.80
2018-04-24T22:13:15.160Z,9.80
2018-04-24T22:15:42.772Z,9.80
2018-04-24T22:18:10.568Z,9.80
2018-04-24T22:20:38.141Z,9.80
2018-04-24T22:23:06.517Z,9.80
2018-04-24T22:25:34.893Z,9.80
2018-04-24T22:28:03.270Z,9.80
2018-04-24T22:30:31.644Z,9.80
2018-04-24T22:32:59.985Z,9.80
2018-04-24T22:35:27.614Z,9.80
2018-04-24T22:37:55.220Z,9.80
2018-04-24T22:40:22.781Z,9.80
2018-04-24T22:42:50.378Z,9.90
2018-04-24T22:45:17.984Z,9.90
2018-04-24T22:47:45.549Z,9.90
2018-04-24T22:50:13.165Z,10.00
2018-04-24T22:52:41.501Z,10.00
2018-04-24T22:55:09.081Z,10.00
2018-04-24T22:57:36.692Z,10.00
2018-04-24T23:00:04.270Z,10.00
2018-04-24T23:02:31.834Z,10.00
2018-04-24T23:04:59.436Z,10.10
2018-04-24T23:07:27.802Z,10.10
2018-04-24T23:09:55.016Z,10.00
2018-04-24T23:12:34.367Z,10.10
2018-04-24T23:15:13.685Z,10.10
2018-04-24T23:17:52.903Z,10.20
2018-04-24T23:20:20.025Z,10.20
2018-04-24T23:22:47.596Z,10.30
2018-04-24T23:25:15.332Z,10.30
2018-04-24T23:27:43.164Z,10.30
2018-04-24T23:30:10.929Z,10.40
2018-04-24T23:32:38.545Z,10.40
2018-04-24T23:35:06.115Z,10.40
2018-04-24T23:37:34.485Z,10.50
2018-04-24T23:40:02.823Z,10.50
2018-04-24T23:42:30.430Z,10.50
2018-04-24T23:44:58.005Z,10.50
2018-04-24T23:47:25.620Z,10.50
2018-04-24T23:49:53.194Z,10.50
2018-04-24T23:52:20.812Z,10.50
2018-04-24T23:54:48.381Z,10.60
2018-04-24T23:57:16.009Z,10.60
2018-04-24T23:59:43.589Z,10.60
